createdAt,value
2022-10-16T00:00:55.190Z,97693.00
2022-10-16T00:03:25.369Z,97691.53
2022-10-16T00:05:54.692Z,97686.06
2022-10-16T00:08:21.266Z,97687.63
2022-10-16T00:10:47.843Z,97695.69
2022-10-16T00:13:14.385Z,97692.66
2022-10-16T00:15:40.931Z,97687.88
2022-10-16T00:18:07.747Z,97690.63
2022-10-16T00:20:37.997Z,97697.00
2022-10-16T00:23:06.119Z,97698.13
2022-10-16T00:25:33.856Z,97700.16
2022-10-16T00:28:01.622Z,97697.97
2022-10-16T00:30:28.977Z,97694.81
2022-10-16T00:32:56.335Z,97706.34
2022-10-16T00:35:23.033Z,97701.91
2022-10-16T00:37:49.720Z,97707.06
2022-10-16T00:40:16.521Z,97714.28
2022-10-16T00:42:43.301Z,97720.88
2022-10-16T00:45:10.607Z,97726.59
2022-10-16T00:47:50.172Z,97735.09
2022-10-16T00:50:33.385Z,97736.13
2022-10-16T00:53:02.736Z,97740.88
2022-10-16T00:55:31.241Z,97733.69
2022-10-16T00:57:59.110Z,97730.38
2022-10-16T01:00:27.902Z,97727.81
2022-10-16T01:02:56.604Z,97732.16
2022-10-16T01:05:44.495Z,97729.72
2022-10-16T01:08:22.750Z,97725.28
2022-10-16T01:11:30.058Z,97739.38
2022-10-16T01:14:01.387Z,97730.31
2022-10-16T01:16:38.684Z,97733.91
2022-10-16T01:19:50.478Z,97740.38
2022-10-16T01:22:18.683Z,97742.94
2022-10-16T01:24:49.446Z,97736.59
2022-10-16T01:27:23.601Z,97732.66
2022-10-16T01:30:16.286Z,97732.66
2022-10-16T01:32:54.003Z,97732.66
2022-10-16T01:35:47.419Z,97731.47
2022-10-16T01:38:25.053Z,97732.00
2022-10-16T01:40:58.227Z,97735.88
2022-10-16T01:43:49.182Z,97737.16
2022-10-16T01:46:19.982Z,97736.28
2022-10-16T01:48:47.307Z,97739.75
2022-10-16T01:51:17.954Z,97747.97
2022-10-16T01:53:49.619Z,97746.66
2022-10-16T01:56:18.313Z,97752.00
2022-10-16T01:58:50.647Z,97756.00
2022-10-16T02:01:22.652Z,97756.19
2022-10-16T02:03:53.350Z,97751.66
2022-10-16T02:06:20.669Z,97752.06
2022-10-16T02:08:47.809Z,97753.06
2022-10-16T02:11:14.440Z,97750.72
2022-10-16T02:13:48.103Z,97760.78
2022-10-16T02:16:15.598Z,97751.13
2022-10-16T02:18:44.519Z,97763.50
2022-10-16T02:21:34.091Z,97765.38
2022-10-16T02:24:25.954Z,97773.44
2022-10-16T02:27:17.911Z,97765.78
2022-10-16T02:29:51.337Z,97772.72
2022-10-16T02:32:22.881Z,97764.63
2022-10-16T02:34:51.210Z,97763.91
2022-10-16T02:37:19.098Z,97759.25
2022-10-16T02:39:45.718Z,97761.13
2022-10-16T02:42:15.886Z,97762.78
2022-10-16T02:44:42.697Z,97755.06
2022-10-16T02:47:09.417Z,97751.03
2022-10-16T02:49:36.077Z,97752.19
2022-10-16T02:52:02.662Z,97764.56
2022-10-16T02:54:29.267Z,97761.59
2022-10-16T02:56:56.106Z,97767.22
2022-10-16T02:59:22.720Z,97769.56
2022-10-16T03:01:49.519Z,97776.75
2022-10-16T03:04:16.123Z,97784.38
2022-10-16T03:06:42.771Z,97786.94
2022-10-16T03:09:09.432Z,97784.94
2022-10-16T03:11:36.109Z,97794.44
2022-10-16T03:14:02.730Z,97800.31
2022-10-16T03:16:29.331Z,97801.84
2022-10-16T03:18:55.929Z,97801.66
2022-10-16T03:21:22.727Z,97812.84
2022-10-16T03:23:49.357Z,97813.72
2022-10-16T03:26:15.959Z,97807.53
2022-10-16T03:28:42.572Z,97817.56
2022-10-16T03:31:09.303Z,97813.72
2022-10-16T03:33:36.078Z,97823.00
2022-10-16T03:36:03.007Z,97816.78
2022-10-16T03:38:29.616Z,97822.81
2022-10-16T03:40:56.210Z,97829.28
2022-10-16T03:43:22.816Z,97834.75
2022-10-16T03:45:52.020Z,97819.75
2022-10-16T03:48:21.955Z,97819.91
2022-10-16T03:50:49.400Z,97819.91
2022-10-16T03:53:16.455Z,97826.63
2022-10-16T03:55:43.702Z,97820.09
2022-10-16T03:58:11.358Z,97817.03
2022-10-16T04:00:45.198Z,97817.56
2022-10-16T04:03:12.575Z,97820.66
2022-10-16T04:05:39.289Z,97816.06
2022-10-16T04:08:06.058Z,97827.78
2022-10-16T04:10:33.023Z,97830.66
2022-10-16T04:12:59.659Z,97831.44
2022-10-16T04:15:26.907Z,97830.19
2022-10-16T04:17:53.838Z,97831.09
2022-10-16T04:20:20.462Z,97844.59
2022-10-16T04:22:47.407Z,97845.16
2022-10-16T04:25:14.264Z,97840.03
2022-10-16T04:27:43.585Z,97843.38
2022-10-16T04:30:12.762Z,97847.03
2022-10-16T04:32:39.343Z,97846.16
2022-10-16T04:35:06.756Z,97850.88
2022-10-16T04:37:33.377Z,97852.19
2022-10-16T04:39:59.939Z,97846.31
2022-10-16T04:42:26.545Z,97859.47
2022-10-16T04:44:53.079Z,97858.50
2022-10-16T04:47:19.919Z,97851.75
2022-10-16T04:49:46.466Z,97862.91
2022-10-16T04:52:13.017Z,97858.38
2022-10-16T04:54:39.645Z,97857.66
2022-10-16T04:57:06.235Z,97844.88
2022-10-16T04:59:32.921Z,97847.94
2022-10-16T05:01:59.512Z,97844.09
2022-10-16T05:04:26.096Z,97837.28
2022-10-16T05:06:52.706Z,97836.91
2022-10-16T05:09:19.492Z,97830.00
2022-10-16T05:11:46.296Z,97835.28
2022-10-16T05:14:12.856Z,97831.28
2022-10-16T05:16:39.466Z,97839.50
2022-10-16T05:21:52.873Z,97845.41
2022-10-16T05:24:19.498Z,97853.59
2022-10-16T05:26:46.086Z,97864.16
2022-10-16T05:29:13.001Z,97861.81
2022-10-16T05:31:39.616Z,97856.69
2022-10-16T05:34:06.358Z,97857.78
2022-10-16T05:36:33.012Z,97860.72
2022-10-16T05:38:59.744Z,97868.75
2022-10-16T05:41:27.241Z,97876.22
2022-10-16T05:43:54.491Z,97873.66
2022-10-16T05:46:21.176Z,97878.03
2022-10-16T05:48:47.827Z,97875.66
2022-10-16T05:51:15.898Z,97882.41
2022-10-16T05:56:14.792Z,97883.91
2022-10-16T05:58:42.146Z,97886.28
2022-10-16T06:01:13.122Z,97897.94
2022-10-16T06:03:40.194Z,97903.78
2022-10-16T06:06:12.494Z,97910.31
2022-10-16T06:08:39.385Z,97910.69
2022-10-16T06:11:08.762Z,97922.34
2022-10-16T06:13:35.571Z,97915.09
2022-10-16T06:16:03.174Z,97922.03
2022-10-16T06:18:30.171Z,97924.19
2022-10-16T06:20:57.956Z,97926.75
2022-10-16T06:23:24.926Z,97936.94
2022-10-16T06:25:51.641Z,97928.75
2022-10-16T06:28:18.211Z,97930.38
2022-10-16T06:30:44.909Z,97927.81
2022-10-16T06:33:12.370Z,97934.19
2022-10-16T06:35:39.218Z,97934.38
2022-10-16T06:38:05.756Z,97936.53
2022-10-16T06:40:32.365Z,97944.91
2022-10-16T06:42:58.942Z,97950.75
2022-10-16T06:45:25.575Z,97952.94
2022-10-16T06:47:52.261Z,97953.50
2022-10-16T06:50:18.855Z,97954.38
2022-10-16T06:52:45.473Z,97974.63
2022-10-16T06:55:12.067Z,97961.69
2022-10-16T06:57:38.631Z,97966.19
2022-10-16T07:00:06.498Z,97972.75
2022-10-16T07:02:33.183Z,97963.06
2022-10-16T07:04:59.826Z,97973.06
2022-10-16T07:07:27.636Z,97972.06
2022-10-16T07:09:54.266Z,97980.47
2022-10-16T07:12:20.967Z,97973.84
2022-10-16T07:14:47.661Z,97972.94
2022-10-16T07:17:14.345Z,97971.66
2022-10-16T07:19:40.985Z,97970.72
2022-10-16T07:22:07.619Z,97969.78
2022-10-16T07:24:34.320Z,97973.75
2022-10-16T07:27:00.865Z,97973.91
2022-10-16T07:29:27.518Z,97981.53
2022-10-16T07:31:54.257Z,97985.78
2022-10-16T07:34:22.808Z,97989.06
2022-10-16T07:36:51.112Z,97985.63
2022-10-16T07:39:18.256Z,97986.50
2022-10-16T07:41:44.890Z,97977.91
2022-10-16T07:44:11.632Z,97980.81
2022-10-16T07:46:38.426Z,97981.34
2022-10-16T07:49:05.117Z,97988.81
2022-10-16T07:51:31.843Z,97982.78
2022-10-16T07:53:58.502Z,97975.63
2022-10-16T07:56:25.244Z,97973.41
2022-10-16T07:58:52.705Z,97966.56
2022-10-16T08:01:20.379Z,97965.78
2022-10-16T08:03:49.505Z,97976.28
2022-10-16T08:06:16.639Z,97972.63
2022-10-16T08:08:43.587Z,97980.84
2022-10-16T08:11:10.204Z,97969.31
2022-10-16T08:13:37.430Z,97972.94
2022-10-16T08:16:08.835Z,97974.94
2022-10-16T08:18:37.154Z,97980.25
2022-10-16T08:21:05.392Z,97980.78
2022-10-16T08:23:32.092Z,97990.44
2022-10-16T08:26:05.061Z,97982.78
2022-10-16T08:28:31.696Z,97984.25
2022-10-16T08:31:12.761Z,97989.47
2022-10-16T08:33:41.501Z,97987.22
2022-10-16T08:36:10.055Z,97991.34
2022-10-16T08:38:37.291Z,97992.00
2022-10-16T08:41:52.752Z,98006.19
2022-10-16T08:45:13.446Z,98003.34
2022-10-16T08:48:08.996Z,97998.97
2022-10-16T08:50:39.623Z,97996.53
2022-10-16T08:53:07.539Z,97991.41
2022-10-16T08:55:42.482Z,97996.94
2022-10-16T08:58:17.589Z,97994.56
2022-10-16T09:00:48.027Z,98002.56
2022-10-16T09:04:13.178Z,98006.66
2022-10-16T09:07:12.472Z,98004.84
2022-10-16T09:10:25.566Z,98004.00
2022-10-16T09:13:03.500Z,98005.19
2022-10-16T09:16:28.615Z,98007.09
2022-10-16T09:19:21.703Z,98006.56
2022-10-16T09:21:49.072Z,98013.69
2022-10-16T09:24:19.794Z,98015.44
2022-10-16T09:26:47.640Z,98011.53
2022-10-16T09:29:24.511Z,98014.28
2022-10-16T09:31:52.463Z,98017.34
2022-10-16T09:34:31.419Z,98009.97
2022-10-16T09:36:59.901Z,98011.44
2022-10-16T09:39:26.606Z,98003.63
2022-10-16T09:41:54.339Z,98003.50
2022-10-16T09:44:31.760Z,98004.53
2022-10-16T09:47:04.333Z,98012.94
2022-10-16T09:49:31.006Z,98012.81
2022-10-16T09:52:13.390Z,98014.69
2022-10-16T09:54:53.926Z,98022.97
2022-10-16T09:57:21.741Z,98018.47
2022-10-16T09:59:59.094Z,98014.13
2022-10-16T10:02:39.427Z,98018.75
2022-10-16T10:05:17.981Z,98017.59
2022-10-16T10:07:47.230Z,98023.53
2022-10-16T10:10:26.960Z,98009.75
2022-10-16T10:12:56.275Z,98014.97
2022-10-16T10:15:25.046Z,98015.53
2022-10-16T10:17:58.680Z,98028.59
2022-10-16T10:20:33.770Z,98026.25
2022-10-16T10:23:00.538Z,98017.56
2022-10-16T10:25:50.950Z,98029.84
2022-10-16T10:29:15.242Z,98021.56
2022-10-16T10:31:54.052Z,98027.03
2022-10-16T10:35:09.822Z,98016.00
2022-10-16T10:38:15.564Z,98016.97
2022-10-16T10:40:58.487Z,98007.28
2022-10-16T10:44:20.344Z,98005.09
2022-10-16T10:47:02.403Z,98003.91
2022-10-16T10:50:07.763Z,98006.94
2022-10-16T10:53:04.462Z,98001.53
2022-10-16T10:56:00.316Z,98002.63
2022-10-16T10:59:24.294Z,97995.38
2022-10-16T11:02:12.190Z,97996.03
2022-10-16T11:05:04.638Z,97990.03
2022-10-16T11:07:40.259Z,97988.09
2022-10-16T11:10:29.890Z,97989.22
2022-10-16T11:13:10.097Z,97987.28
2022-10-16T11:15:40.588Z,97982.78
2022-10-16T11:18:13.239Z,97983.88
2022-10-16T11:20:54.569Z,97978.28
2022-10-16T11:24:07.314Z,97974.50
2022-10-16T11:26:37.026Z,97971.03
2022-10-16T11:29:09.897Z,97976.41
2022-10-16T11:31:48.814Z,97975.81
2022-10-16T11:34:53.073Z,97980.47
2022-10-16T11:37:28.888Z,97981.69
2022-10-16T11:40:19.272Z,97976.78
2022-10-16T11:42:52.996Z,97974.75
2022-10-16T11:45:32.002Z,97975.00
2022-10-16T11:48:09.731Z,97976.97
2022-10-16T11:50:57.439Z,97978.53
2022-10-16T11:53:54.780Z,97981.53
2022-10-16T11:56:22.690Z,97973.00
2022-10-16T11:59:05.879Z,97971.91
2022-10-16T12:01:48.424Z,97977.34
2022-10-16T12:04:28.711Z,97967.47
2022-10-16T12:07:10.927Z,97974.81
2022-10-16T12:09:42.326Z,97970.47
2022-10-16T12:12:38.418Z,97972.28
2022-10-16T12:15:57.559Z,97968.28
2022-10-16T12:18:25.908Z,97972.25
2022-10-16T12:21:00.227Z,97969.56
2022-10-16T12:23:27.237Z,97969.78
2022-10-16T12:25:59.870Z,97962.59
2022-10-16T12:28:32.673Z,97961.66
2022-10-16T12:31:13.400Z,97978.72
2022-10-16T12:33:58.714Z,97973.81
2022-10-16T12:36:32.326Z,97975.16
2022-10-16T12:39:00.010Z,97970.34
2022-10-16T12:41:38.799Z,97969.00
2022-10-16T12:44:05.426Z,97968.66
2022-10-16T12:46:40.650Z,97977.69
2022-10-16T12:49:37.673Z,97965.06
2022-10-16T12:52:04.716Z,97972.53
2022-10-16T12:54:42.230Z,97974.44
2022-10-16T12:57:55.287Z,97973.13
2022-10-16T13:00:24.849Z,97973.84
2022-10-16T13:03:44.195Z,97969.03
2022-10-16T13:06:39.673Z,97974.00
2022-10-16T13:09:46.880Z,97970.63
2022-10-16T13:13:15.894Z,97971.34
2022-10-16T13:28:30.669Z,97983.81
2022-10-16T13:31:00.310Z,97986.25
2022-10-16T13:33:37.452Z,97985.03
2022-10-16T13:36:05.497Z,97981.66
2022-10-16T13:38:34.646Z,97989.81
2022-10-16T13:41:07.583Z,97987.44
2022-10-16T13:43:40.932Z,97988.28
2022-10-16T13:46:21.750Z,97987.69
2022-10-16T13:49:04.195Z,97991.78
2022-10-16T13:51:32.506Z,97983.09
2022-10-16T13:53:59.553Z,97995.59
2022-10-16T13:56:29.142Z,98000.31
2022-10-16T13:59:04.145Z,98001.38
2022-10-16T14:01:35.120Z,97993.22
2022-10-16T14:04:11.020Z,97993.81
2022-10-16T14:06:41.574Z,97999.22
2022-10-16T14:09:31.903Z,97983.47
2022-10-16T14:12:05.085Z,97986.25
2022-10-16T14:14:36.929Z,97986.47
2022-10-16T14:17:04.429Z,97996.06
2022-10-16T14:19:32.406Z,97997.88
2022-10-16T14:22:00.849Z,98003.03
2022-10-16T14:24:34.097Z,97997.75
2022-10-16T14:27:02.254Z,97999.69
2022-10-16T14:29:34.087Z,97999.69
2022-10-16T14:32:03.074Z,98000.88
2022-10-16T14:34:35.121Z,98015.19
2022-10-16T14:37:15.411Z,98012.16
2022-10-16T14:39:42.151Z,98019.50
2022-10-16T14:42:20.507Z,98019.75
2022-10-16T14:44:48.580Z,98014.72
2022-10-16T14:47:23.141Z,98016.50
2022-10-16T14:49:49.803Z,98007.59
2022-10-16T14:52:16.568Z,98014.94
2022-10-16T14:54:43.525Z,98007.47
2022-10-16T14:57:23.475Z,98008.66
2022-10-16T14:59:54.254Z,98009.38
2022-10-16T15:02:32.858Z,98002.41
2022-10-16T15:05:12.347Z,98009.97
2022-10-16T15:07:39.167Z,98004.91
2022-10-16T15:10:06.363Z,98021.25
2022-10-16T15:12:33.552Z,98017.16
2022-10-16T15:15:00.322Z,98010.81
2022-10-16T15:17:27.174Z,98016.66
2022-10-16T15:19:54.154Z,98013.75
2022-10-16T15:22:20.815Z,98017.38
2022-10-16T15:24:47.405Z,98011.13
2022-10-16T15:27:14.038Z,98026.28
2022-10-16T15:29:40.637Z,98029.03
2022-10-16T15:32:07.227Z,98030.34
2022-10-16T15:34:33.821Z,98029.03
2022-10-16T15:37:04.314Z,98026.59
2022-10-16T15:39:31.436Z,98030.09
2022-10-16T15:41:58.397Z,98031.16
2022-10-16T15:44:27.157Z,98021.91
2022-10-16T15:46:56.002Z,98034.84
2022-10-16T15:49:22.589Z,98036.50
2022-10-16T15:51:49.497Z,98036.25
2022-10-16T15:54:16.246Z,98034.66
2022-10-16T15:56:42.870Z,98034.38
2022-10-16T15:59:09.454Z,98047.94
2022-10-16T16:01:36.771Z,98033.75
2022-10-16T16:04:10.902Z,98046.09
2022-10-16T16:06:45.926Z,98044.53
2022-10-16T16:09:14.539Z,98041.25
2022-10-16T16:11:41.978Z,98046.38
2022-10-16T16:14:11.800Z,98049.47
2022-10-16T16:16:39.134Z,98045.97
2022-10-16T16:19:10.576Z,98055.19
2022-10-16T16:21:38.643Z,98050.56
2022-10-16T16:24:09.336Z,98059.16
2022-10-16T16:26:40.372Z,98055.97
2022-10-16T16:29:07.978Z,98052.84
2022-10-16T16:31:35.777Z,98060.25
2022-10-16T16:34:04.714Z,98059.97
2022-10-16T16:36:31.848Z,98057.41
2022-10-16T16:38:59.050Z,98061.91
2022-10-16T16:41:28.328Z,98060.03
2022-10-16T16:43:55.523Z,98064.56
2022-10-16T16:46:22.912Z,98069.34
2022-10-16T16:48:54.522Z,98076.75
2022-10-16T16:51:21.321Z,98075.31
2022-10-16T16:53:50.931Z,98079.09
2022-10-16T16:56:18.464Z,98085.03
2022-10-16T16:58:53.121Z,98086.06
2022-10-16T17:01:21.401Z,98082.56
2022-10-16T17:03:51.504Z,98089.69
2022-10-16T17:06:21.391Z,98085.66
2022-10-16T17:08:49.299Z,98092.31
2022-10-16T17:11:18.640Z,98099.00
2022-10-16T17:13:45.591Z,98106.97
2022-10-16T17:16:12.800Z,98099.16
2022-10-16T17:18:39.724Z,98101.91
2022-10-16T17:21:08.646Z,98102.19
2022-10-16T17:23:36.723Z,98110.34
2022-10-16T17:26:07.807Z,98115.56
2022-10-16T17:28:34.533Z,98124.97
2022-10-16T17:31:16.232Z,98120.03
2022-10-16T17:33:44.219Z,98126.41
2022-10-16T17:36:11.918Z,98144.69
2022-10-16T17:38:38.830Z,98144.41
2022-10-16T17:41:25.730Z,98144.09
2022-10-16T17:43:53.572Z,98144.53
2022-10-16T17:46:21.967Z,98149.03
2022-10-16T17:48:51.386Z,98154.38
2022-10-16T17:51:22.022Z,98155.41
2022-10-16T17:53:50.888Z,98159.59
2022-10-16T17:56:17.765Z,98174.50
2022-10-16T17:58:46.512Z,98178.56
2022-10-16T18:01:20.846Z,98180.28
2022-10-16T18:03:56.253Z,98182.91
2022-10-16T18:06:23.761Z,98184.94
2022-10-16T18:08:54.586Z,98190.13
2022-10-16T18:11:22.428Z,98189.09
2022-10-16T18:13:52.104Z,98193.88
2022-10-16T18:16:18.765Z,98192.25
2022-10-16T18:18:45.663Z,98192.69
2022-10-16T18:21:15.402Z,98208.19
2022-10-16T18:23:46.311Z,98202.34
2022-10-16T18:26:16.796Z,98212.53
2022-10-16T18:28:45.442Z,98208.44
2022-10-16T18:31:39.159Z,98210.84
2022-10-16T18:34:08.695Z,98208.56
2022-10-16T18:36:40.052Z,98214.47
2022-10-16T18:39:12.666Z,98211.25
2022-10-16T18:41:49.371Z,98220.81
2022-10-16T18:44:20.914Z,98220.94
2022-10-16T18:46:48.017Z,98212.38
2022-10-16T18:49:16.283Z,98218.31
2022-10-16T18:51:50.949Z,98225.13
2022-10-16T18:54:19.081Z,98226.25
2022-10-16T18:56:47.088Z,98230.44
2022-10-16T18:59:16.440Z,98233.59
2022-10-16T19:01:46.417Z,98238.22
2022-10-16T19:04:22.950Z,98232.56
2022-10-16T19:06:53.243Z,98238.06
2022-10-16T19:09:33.866Z,98234.28
2022-10-16T19:12:00.534Z,98236.16
2022-10-16T19:14:29.222Z,98241.47
2022-10-16T19:16:55.834Z,98245.53
2022-10-16T19:19:23.811Z,98240.44
2022-10-16T19:21:56.090Z,98247.97
2022-10-16T19:24:22.703Z,98240.88
2022-10-16T19:26:49.708Z,98236.09
2022-10-16T19:29:16.495Z,98245.63
2022-10-16T19:31:43.129Z,98242.72
2022-10-16T19:34:11.026Z,98248.22
2022-10-16T19:36:39.459Z,98246.78
2022-10-16T19:39:08.965Z,98250.09
2022-10-16T19:41:37.782Z,98253.97
2022-10-16T19:44:07.069Z,98257.28
2022-10-16T19:46:34.466Z,98255.13
2022-10-16T19:49:04.019Z,98255.34
2022-10-16T19:51:31.770Z,98260.53
2022-10-16T19:54:01.077Z,98262.97
2022-10-16T19:56:29.823Z,98270.75
2022-10-16T19:58:57.829Z,98268.53
2022-10-16T20:01:26.405Z,98263.63
2022-10-16T20:03:53.190Z,98271.69
2022-10-16T20:06:20.913Z,98275.03
2022-10-16T20:08:51.559Z,98277.44
2022-10-16T20:11:21.047Z,98280.75
2022-10-16T20:13:47.706Z,98280.03
2022-10-16T20:16:17.855Z,98291.00
2022-10-16T20:18:45.751Z,98285.91
2022-10-16T20:21:14.433Z,98292.00
2022-10-16T20:23:42.129Z,98289.38
2022-10-16T20:26:11.504Z,98285.41
2022-10-16T20:28:43.039Z,98296.25
2022-10-16T20:31:20.731Z,98298.44
2022-10-16T20:33:47.279Z,98299.00
2022-10-16T20:36:15.444Z,98298.81
2022-10-16T20:38:43.317Z,98305.78
2022-10-16T20:41:11.247Z,98299.56
2022-10-16T20:46:15.523Z,98299.41
2022-10-16T20:48:46.827Z,98298.50
2022-10-16T20:51:25.273Z,98299.63
2022-10-16T20:53:54.946Z,98301.31
2022-10-16T20:56:22.098Z,98304.06
2022-10-16T20:58:48.942Z,98306.25
2022-10-16T21:01:18.387Z,98304.78
2022-10-16T21:03:49.440Z,98303.72
2022-10-16T21:06:16.056Z,98302.25
2022-10-16T21:08:43.487Z,98297.31
2022-10-16T21:11:24.734Z,98309.09
2022-10-16T21:13:53.228Z,98307.66
2022-10-16T21:16:19.927Z,98306.75
2022-10-16T21:18:46.762Z,98311.00
2022-10-16T21:21:25.118Z,98304.84
2022-10-16T21:23:52.698Z,98306.69
2022-10-16T21:26:25.960Z,98301.56
2022-10-16T21:28:57.392Z,98306.69
2022-10-16T21:31:24.078Z,98299.03
2022-10-16T21:33:51.325Z,98304.19
2022-10-16T21:36:21.301Z,98304.91
2022-10-16T21:38:48.133Z,98311.84
2022-10-16T21:41:27.069Z,98303.94
2022-10-16T21:43:54.939Z,98309.28
2022-10-16T21:46:24.177Z,98311.13
2022-10-16T21:49:14.814Z,98315.53
2022-10-16T21:51:44.183Z,98314.63
2022-10-16T21:54:13.943Z,98310.84
2022-10-16T21:56:40.722Z,98318.16
2022-10-16T21:59:07.410Z,98314.34
2022-10-16T22:01:34.257Z,98318.94
2022-10-16T22:04:00.949Z,98312.38
2022-10-16T22:06:29.073Z,98319.00
2022-10-16T22:09:02.215Z,98314.06
2022-10-16T22:11:36.992Z,98319.22
2022-10-16T22:14:15.878Z,98314.84
2022-10-16T22:16:43.187Z,98326.69
2022-10-16T22:19:11.458Z,98317.75
2022-10-16T22:21:40.245Z,98317.59
2022-10-16T22:24:08.014Z,98326.34
2022-10-16T22:26:35.439Z,98328.75
2022-10-16T22:29:02.778Z,98320.91
2022-10-16T22:31:29.451Z,98328.25
2022-10-16T22:33:57.812Z,98319.47
2022-10-16T22:36:25.150Z,98317.28
2022-10-16T22:38:51.759Z,98318.56
2022-10-16T22:41:18.501Z,98314.53
2022-10-16T22:43:48.078Z,98308.31
2022-10-16T22:46:23.637Z,98324.22
2022-10-16T22:48:50.418Z,98313.97
2022-10-16T22:51:18.068Z,98318.72
2022-10-16T22:53:46.865Z,98325.16
2022-10-16T22:56:14.835Z,98327.72
2022-10-16T22:58:42.121Z,98331.75
2022-10-16T23:01:19.190Z,98326.28
2022-10-16T23:03:45.794Z,98335.81
2022-10-16T23:06:12.787Z,98334.88
2022-10-16T23:08:39.495Z,98328.69
2022-10-16T23:11:08.711Z,98332.38
2022-10-16T23:13:39.857Z,98333.28
2022-10-16T23:16:07.371Z,98339.66
2022-10-16T23:18:36.943Z,98341.66
2022-10-16T23:21:08.743Z,98340.56
2022-10-16T23:23:36.581Z,98338.72
2022-10-16T23:26:08.315Z,98339.06
2022-10-16T23:28:35.157Z,98338.84
2022-10-16T23:31:05.180Z,98335.94
2022-10-16T23:33:33.269Z,98341.09
2022-10-16T23:36:00.322Z,98331.22
2022-10-16T23:38:26.923Z,98329.22
2022-10-16T23:40:53.768Z,98332.53
2022-10-16T23:43:20.541Z,98332.00
2022-10-16T23:45:47.110Z,98330.69
2022-10-16T23:48:13.698Z,98330.91
2022-10-16T23:50:40.767Z,98329.28
2022-10-16T23:53:10.081Z,98329.09
2022-10-16T23:55:37.306Z,98333.31
2022-10-16T23:58:04.191Z,98333.84
